Terminal Aerodrome Forecast
Issued by NWS

Home | Current Version | Previous Version | Text Only | Print | Product List | Glossary On
Versions: 1 2 3 4 5 6 7 8 9 10 11 12 13 14 15 16 17 18 19
670
FTUS42 KJAX 291152 CCA
TAFVQQ
TAF COR
KVQQ 291152Z 2912/3012 31004KT 3SM BR OVC004
     FM291300 30005KT 6SM BR FEW005 BKN009
     FM291400 30006KT P6SM FEW050 SCT250
     FM292200 17007KT P6SM SCT050
     FM300800 VRB02KT 2SM BR FEW250=

USA.gov is the U.S. government's official web portal to all federal, state and local government web resources and services.